createdAt,value
2019-02-20T00:00:15.436Z,15.97
2019-02-20T00:02:43.844Z,15.70
2019-02-20T00:05:12.312Z,16.48
2019-02-20T00:07:40.747Z,15.20
2019-02-20T00:10:09.139Z,16.60
2019-02-20T00:12:37.891Z,16.40
2019-02-20T00:15:06.860Z,15.95
2019-02-20T00:17:35.283Z,15.83
2019-02-20T00:20:05.031Z,15.78
2019-02-20T00:22:39.971Z,16.32
2019-02-20T00:25:04.359Z,16.45
2019-02-20T00:27:32.775Z,16.52
2019-02-20T00:30:01.189Z,16.12
2019-02-20T00:32:29.921Z,15.50
2019-02-20T00:34:58.357Z,15.68
2019-02-20T00:37:26.779Z,15.30
2019-02-20T00:39:55.230Z,16.10
2019-02-20T00:42:23.660Z,17.07
2019-02-20T00:44:56.428Z,15.98
2019-02-20T00:47:42.996Z,15.63
2019-02-20T00:50:12.585Z,15.80
2019-02-20T00:52:49.825Z,16.02
2019-02-20T00:55:15.489Z,15.28
2019-02-20T00:57:43.909Z,15.85
2019-02-20T01:00:13.759Z,14.00
2019-02-20T01:02:42.152Z,14.73
2019-02-20T01:05:10.631Z,16.10
2019-02-20T01:07:39.028Z,15.40
2019-02-20T01:10:08.675Z,15.80
2019-02-20T01:12:37.888Z,14.83
2019-02-20T01:15:09.360Z,14.73
2019-02-20T01:17:37.755Z,15.45
2019-02-20T01:20:09.196Z,14.80
2019-02-20T01:22:37.583Z,15.08
2019-02-20T01:25:06.658Z,13.48
2019-02-20T01:27:35.039Z,14.73
2019-02-20T01:30:04.693Z,13.50
2019-02-20T01:32:33.099Z,13.28
2019-02-20T01:35:01.549Z,13.20
2019-02-20T01:37:29.969Z,12.82
2019-02-20T01:39:58.376Z,13.20
2019-02-20T01:42:26.776Z,12.00
2019-02-20T01:44:55.193Z,12.85
2019-02-20T01:47:23.593Z,12.33
2019-02-20T01:49:51.995Z,12.63
2019-02-20T01:52:20.409Z,12.68
2019-02-20T01:54:48.841Z,12.10
2019-02-20T01:57:17.280Z,10.93
2019-02-20T01:59:45.685Z,12.50
2019-02-20T02:02:14.084Z,11.63
2019-02-20T02:04:42.499Z,11.78
2019-02-20T02:07:10.909Z,12.23
2019-02-20T02:09:39.569Z,11.80
2019-02-20T02:12:08.264Z,11.53
2019-02-20T02:14:36.736Z,11.28
2019-02-20T02:17:05.346Z,12.88
2019-02-20T02:19:33.745Z,12.00
2019-02-20T02:22:02.184Z,12.00
2019-02-20T02:24:30.605Z,11.78
2019-02-20T02:26:59.012Z,11.85
2019-02-20T02:29:27.431Z,12.77
2019-02-20T02:31:55.863Z,12.73
2019-02-20T02:34:24.255Z,12.23
2019-02-20T02:36:52.664Z,12.68
2019-02-20T02:39:21.079Z,13.08
2019-02-20T02:41:49.507Z,13.15
2019-02-20T02:44:17.903Z,13.67
2019-02-20T02:46:46.609Z,14.13
2019-02-20T02:49:15.018Z,14.27
2019-02-20T02:51:43.424Z,13.72
2019-02-20T02:54:11.823Z,13.75
2019-02-20T02:56:40.243Z,14.43
2019-02-20T02:59:08.654Z,14.58
2019-02-20T03:01:37.060Z,16.00
2019-02-20T03:04:05.469Z,15.30
2019-02-20T03:06:33.909Z,15.15
2019-02-20T03:09:02.295Z,14.87
2019-02-20T03:11:30.707Z,15.90
2019-02-20T03:13:59.165Z,16.05
2019-02-20T03:16:27.651Z,17.25
2019-02-20T03:18:56.071Z,15.85
2019-02-20T03:21:24.474Z,17.20
2019-02-20T03:23:52.891Z,17.70
2019-02-20T03:26:21.308Z,19.70
2019-02-20T03:28:49.701Z,20.50
2019-02-20T03:31:18.114Z,21.90
2019-02-20T03:33:46.524Z,22.25
2019-02-20T03:36:14.960Z,23.15
2019-02-20T03:38:43.641Z,24.07
2019-02-20T03:41:12.055Z,24.60
2019-02-20T03:43:40.523Z,24.32
2019-02-20T03:46:08.967Z,24.75
2019-02-20T03:48:37.453Z,26.40
2019-02-20T03:51:05.914Z,26.10
2019-02-20T03:53:34.420Z,26.10
2019-02-20T03:56:02.923Z,26.05
2019-02-20T03:58:33.213Z,26.75
2019-02-20T04:01:02.112Z,25.65
2019-02-20T04:03:30.528Z,26.80
2019-02-20T04:05:58.947Z,28.42
2019-02-20T04:08:27.365Z,28.35
2019-02-20T04:10:55.779Z,27.75
2019-02-20T04:13:24.517Z,27.25
2019-02-20T04:15:52.937Z,26.93
2019-02-20T04:18:21.341Z,26.30
2019-02-20T04:20:49.745Z,26.05
2019-02-20T04:23:18.155Z,25.97
2019-02-20T04:25:46.560Z,25.15
2019-02-20T04:28:14.988Z,24.92
2019-02-20T04:30:43.389Z,25.50
2019-02-20T04:33:11.810Z,25.57
2019-02-20T04:35:40.687Z,26.62
2019-02-20T04:38:09.140Z,25.25
2019-02-20T04:40:37.549Z,25.25
2019-02-20T04:43:05.966Z,25.70
2019-02-20T04:45:34.384Z,24.57
2019-02-20T04:48:02.790Z,25.30
2019-02-20T04:50:31.187Z,24.05
2019-02-20T04:52:59.596Z,24.30
2019-02-20T04:55:28.029Z,24.75
2019-02-20T04:58:17.295Z,24.70
2019-02-20T05:00:46.007Z,23.95
2019-02-20T05:03:14.497Z,24.20
2019-02-20T05:05:43.009Z,24.50
2019-02-20T05:08:11.410Z,22.65
2019-02-20T05:10:39.877Z,23.77
2019-02-20T05:13:08.296Z,25.50
2019-02-20T05:15:36.693Z,24.25
2019-02-20T05:18:05.093Z,22.93
2019-02-20T05:20:33.495Z,24.30
2019-02-20T05:23:01.918Z,23.25
2019-02-20T05:25:30.320Z,24.07
2019-02-20T05:27:58.737Z,23.62
2019-02-20T05:30:27.153Z,23.43
2019-02-20T05:32:55.560Z,23.98
2019-02-20T05:35:23.965Z,24.52
2019-02-20T05:37:52.375Z,24.67
2019-02-20T05:40:20.803Z,25.05
2019-02-20T05:42:49.404Z,24.10
2019-02-20T05:45:17.834Z,25.00
2019-02-20T05:47:46.220Z,24.23
2019-02-20T05:50:14.628Z,23.85
2019-02-20T05:52:43.082Z,23.90
2019-02-20T05:55:11.870Z,24.57
2019-02-20T05:57:40.300Z,24.32
2019-02-20T06:00:13.915Z,24.20
2019-02-20T06:02:42.323Z,24.20
2019-02-20T06:05:10.717Z,24.75
2019-02-20T06:07:39.113Z,25.37
2019-02-20T06:10:09.287Z,26.30
2019-02-20T06:12:37.792Z,25.60
2019-02-20T06:15:08.847Z,26.37
2019-02-20T06:17:37.248Z,25.43
2019-02-20T06:20:08.087Z,27.10
2019-02-20T06:22:36.492Z,25.68
2019-02-20T06:25:05.355Z,26.55
2019-02-20T06:27:33.867Z,28.10
2019-02-20T06:30:02.444Z,26.00
2019-02-20T06:32:30.855Z,27.48
2019-02-20T06:34:59.355Z,27.87
2019-02-20T06:37:27.768Z,28.42
2019-02-20T06:39:56.197Z,28.47
2019-02-20T06:42:24.605Z,28.30
2019-02-20T06:44:53.008Z,29.30
2019-02-20T06:47:21.411Z,29.60
2019-02-20T06:49:50.102Z,29.90
2019-02-20T06:52:18.530Z,28.77
2019-02-20T06:54:53.519Z,29.80
2019-02-20T06:57:17.106Z,29.23
2019-02-20T06:59:45.591Z,30.65
2019-02-20T07:02:14.001Z,30.40
2019-02-20T07:04:45.539Z,29.60
2019-02-20T07:07:22.543Z,30.75
2019-02-20T07:10:03.172Z,30.48
2019-02-20T07:12:34.644Z,31.37
2019-02-20T07:15:17.495Z,32.05
2019-02-20T07:17:54.833Z,30.02
2019-02-20T07:20:45.963Z,31.35
2019-02-20T07:23:41.295Z,30.62
2019-02-20T07:26:32.539Z,31.50
2019-02-20T07:29:09.825Z,31.10
2019-02-20T07:31:38.252Z,31.50
2019-02-20T07:34:06.663Z,31.95
2019-02-20T07:36:35.111Z,32.65
2019-02-20T07:39:04.520Z,32.53
2019-02-20T07:41:32.976Z,32.67
2019-02-20T07:44:01.372Z,31.97
2019-02-20T07:46:29.851Z,32.78
2019-02-20T07:48:58.244Z,31.30
2019-02-20T07:51:26.660Z,31.77
2019-02-20T07:53:55.076Z,32.30
2019-02-20T07:56:24.123Z,32.10
2019-02-20T07:58:52.678Z,32.30
2019-02-20T08:01:21.401Z,32.25
2019-02-20T08:03:49.849Z,33.65
2019-02-20T08:06:18.260Z,32.33
2019-02-20T08:08:47.592Z,32.17
2019-02-20T08:11:16.433Z,32.58
2019-02-20T08:13:44.832Z,32.25
2019-02-20T08:16:13.244Z,32.05
2019-02-20T08:18:41.985Z,31.50
2019-02-20T08:21:10.666Z,31.30
2019-02-20T08:23:39.099Z,31.37
2019-02-20T08:26:07.572Z,32.30
2019-02-20T08:28:36.008Z,31.00
2019-02-20T08:31:04.440Z,31.60
2019-02-20T08:33:32.872Z,30.08
2019-02-20T08:36:01.352Z,31.23
2019-02-20T08:38:29.832Z,30.08
2019-02-20T08:40:58.283Z,30.77
2019-02-20T08:43:26.735Z,31.33
2019-02-20T08:45:55.173Z,30.35
2019-02-20T08:48:23.596Z,29.60
2019-02-20T08:50:52.016Z,31.07
2019-02-20T08:53:20.516Z,30.45
2019-02-20T08:55:48.930Z,29.30
2019-02-20T08:58:17.328Z,30.68
2019-02-20T09:00:45.728Z,32.10
2019-02-20T09:03:14.149Z,31.97
2019-02-20T09:05:42.553Z,33.13
2019-02-20T09:08:10.968Z,32.50
2019-02-20T09:10:39.369Z,32.05
2019-02-20T09:13:07.789Z,31.15
2019-02-20T09:15:36.204Z,31.97
2019-02-20T09:18:04.707Z,32.17
2019-02-20T09:20:33.186Z,30.80
2019-02-20T09:23:01.596Z,31.55
2019-02-20T09:25:30.028Z,32.25
2019-02-20T09:27:58.431Z,32.37
2019-02-20T09:30:28.818Z,31.90
2019-02-20T09:32:57.336Z,32.53
2019-02-20T09:35:25.767Z,32.05
2019-02-20T09:37:54.201Z,33.10
2019-02-20T09:40:22.605Z,32.50
2019-02-20T09:42:52.453Z,33.18
2019-02-20T09:45:20.859Z,32.45
2019-02-20T09:47:49.292Z,33.90
2019-02-20T09:50:18.015Z,34.20
2019-02-20T09:52:52.301Z,33.73
2019-02-20T09:55:16.555Z,33.40
2019-02-20T09:57:45.026Z,34.00
2019-02-20T10:00:20.140Z,35.10
2019-02-20T10:02:48.596Z,34.67
2019-02-20T10:05:17.086Z,33.53
2019-02-20T10:07:45.485Z,34.98
2019-02-20T10:10:13.893Z,33.92
2019-02-20T10:12:42.319Z,35.17
2019-02-20T10:15:18.365Z,36.08
2019-02-20T10:17:46.770Z,35.85
2019-02-20T10:20:15.224Z,36.77
2019-02-20T10:22:43.652Z,35.33
2019-02-20T10:25:13.035Z,35.95
2019-02-20T10:27:41.477Z,34.20
2019-02-20T10:30:13.026Z,35.45
2019-02-20T10:32:41.426Z,35.28
2019-02-20T10:35:10.314Z,33.70
2019-02-20T10:37:38.736Z,34.92
2019-02-20T10:40:09.295Z,34.38
2019-02-20T10:42:37.693Z,34.85
2019-02-20T10:45:09.201Z,34.73
2019-02-20T10:47:37.612Z,34.50
2019-02-20T10:50:08.855Z,33.83
2019-02-20T10:52:37.268Z,33.73
2019-02-20T10:55:07.320Z,33.35
2019-02-20T10:57:35.723Z,33.20
2019-02-20T11:00:08.380Z,34.40
2019-02-20T11:02:36.818Z,33.20
2019-02-20T11:05:06.263Z,31.60
2019-02-20T11:07:34.693Z,33.35
2019-02-20T11:10:05.568Z,33.40
2019-02-20T11:12:33.986Z,31.73
2019-02-20T11:15:02.392Z,33.02
2019-02-20T11:17:30.793Z,32.65
2019-02-20T11:19:59.214Z,33.65
2019-02-20T11:22:27.885Z,33.58
2019-02-20T11:24:56.315Z,34.13
2019-02-20T11:27:24.739Z,33.50
2019-02-20T11:29:53.168Z,33.83
2019-02-20T11:32:21.569Z,32.80
2019-02-20T11:34:49.968Z,33.73
2019-02-20T11:37:18.387Z,34.27
2019-02-20T11:39:46.783Z,35.50
2019-02-20T11:42:15.206Z,34.55
2019-02-20T11:44:43.600Z,35.00
2019-02-20T11:47:12.024Z,35.00
2019-02-20T11:49:40.431Z,35.43
2019-02-20T11:52:08.844Z,35.52
2019-02-20T11:54:37.244Z,34.70
2019-02-20T11:57:05.688Z,34.83
2019-02-20T11:59:34.086Z,35.70
2019-02-20T12:02:02.534Z,37.00
2019-02-20T12:04:30.942Z,36.70
2019-02-20T12:06:59.364Z,35.60
2019-02-20T12:09:27.805Z,36.23
2019-02-20T12:11:56.244Z,35.92
2019-02-20T12:14:24.870Z,34.67
2019-02-20T12:16:56.735Z,33.70
2019-02-20T12:19:25.167Z,32.95
2019-02-20T12:21:53.584Z,34.40
2019-02-20T12:24:21.986Z,35.70
2019-02-20T12:26:50.405Z,37.23
2019-02-20T12:29:18.852Z,37.73
2019-02-20T12:31:52.490Z,38.90
2019-02-20T12:34:17.493Z,39.47
2019-02-20T12:36:45.947Z,40.08
2019-02-20T12:39:14.331Z,41.70
2019-02-20T12:41:42.747Z,41.05
2019-02-20T12:44:11.151Z,42.67
2019-02-20T12:46:39.591Z,41.95
2019-02-20T12:49:08.014Z,41.90
2019-02-20T12:51:36.430Z,43.68
2019-02-20T12:54:05.330Z,45.55
2019-02-20T12:56:33.765Z,44.20
2019-02-20T12:59:07.600Z,44.65
2019-02-20T13:01:32.319Z,45.65
2019-02-20T13:04:00.741Z,46.48
2019-02-20T13:06:29.836Z,45.58
2019-02-20T13:08:58.456Z,45.20
2019-02-20T13:11:26.889Z,44.25
2019-02-20T13:13:55.336Z,44.83
2019-02-20T13:16:24.068Z,43.65
2019-02-20T13:18:52.504Z,42.93
2019-02-20T13:21:20.909Z,43.73
2019-02-20T13:23:49.359Z,41.25
2019-02-20T13:26:17.760Z,42.70
2019-02-20T13:28:46.187Z,38.48
2019-02-20T13:31:14.605Z,39.15
2019-02-20T13:33:43.052Z,37.67
2019-02-20T13:36:11.459Z,38.33
2019-02-20T13:38:39.868Z,36.95
2019-02-20T13:41:08.677Z,35.28
2019-02-20T13:43:37.119Z,34.10
2019-02-20T13:46:05.518Z,33.23
2019-02-20T13:48:34.953Z,30.45
2019-02-20T13:51:03.523Z,31.70
2019-02-20T13:53:33.653Z,32.10
2019-02-20T13:56:02.516Z,33.50
2019-02-20T13:58:31.032Z,33.03
2019-02-20T14:00:59.432Z,34.70
2019-02-20T14:03:27.860Z,34.23
2019-02-20T14:05:56.279Z,34.35
2019-02-20T14:08:24.777Z,33.27
2019-02-20T14:10:53.207Z,32.85
2019-02-20T14:13:21.985Z,32.70
2019-02-20T14:15:50.485Z,32.48
2019-02-20T14:18:18.977Z,31.77
2019-02-20T14:20:47.404Z,33.48
2019-02-20T14:23:15.816Z,33.23
2019-02-20T14:25:44.463Z,32.05
2019-02-20T14:28:13.029Z,31.45
2019-02-20T14:30:41.918Z,30.92
2019-02-20T14:33:10.356Z,30.65
2019-02-20T14:35:38.759Z,31.90
2019-02-20T14:38:07.173Z,31.40
2019-02-20T14:40:35.582Z,32.63
2019-02-20T14:43:04.033Z,33.08
2019-02-20T14:45:32.531Z,32.88
2019-02-20T14:48:01.365Z,31.90
2019-02-20T14:50:29.780Z,33.02
2019-02-20T14:52:58.206Z,33.70
2019-02-20T14:55:27.080Z,34.27
2019-02-20T14:57:55.497Z,34.27
2019-02-20T15:00:23.968Z,33.88
2019-02-20T15:02:52.398Z,36.50
2019-02-20T15:05:21.127Z,35.63
2019-02-20T15:07:49.596Z,35.92
2019-02-20T15:10:18.007Z,33.58
2019-02-20T15:12:46.742Z,34.70
2019-02-20T15:15:15.280Z,35.08
2019-02-20T15:17:43.683Z,34.08
2019-02-20T15:20:12.124Z,34.40
2019-02-20T15:22:40.603Z,32.83
2019-02-20T15:25:10.041Z,34.27
2019-02-20T15:27:38.525Z,33.58
2019-02-20T15:30:12.266Z,30.35
2019-02-20T15:32:41.017Z,29.05
2019-02-20T15:35:09.666Z,28.40
2019-02-20T15:37:38.965Z,27.60
2019-02-20T15:40:09.337Z,28.10
2019-02-20T15:42:37.815Z,25.70
2019-02-20T15:45:08.696Z,25.85
2019-02-20T15:47:37.121Z,25.77
2019-02-20T15:50:13.153Z,26.65
2019-02-20T15:52:41.587Z,25.53
2019-02-20T15:55:11.513Z,27.58
2019-02-20T15:57:39.933Z,26.53
2019-02-20T16:00:18.954Z,26.73
2019-02-20T16:02:47.868Z,25.20
2019-02-20T16:05:16.720Z,24.20
2019-02-20T16:07:45.457Z,24.02
2019-02-20T16:10:14.026Z,25.00
2019-02-20T16:12:43.115Z,25.62
2019-02-20T16:15:14.421Z,25.35
2019-02-20T16:17:42.556Z,23.70
2019-02-20T16:20:13.589Z,25.20
2019-02-20T16:22:42.028Z,24.63
2019-02-20T16:25:13.014Z,21.73
2019-02-20T16:27:47.086Z,21.50
2019-02-20T16:30:17.495Z,21.27
2019-02-20T16:32:45.928Z,18.25
2019-02-20T16:35:14.727Z,15.98
2019-02-20T16:37:43.173Z,13.90
2019-02-20T16:40:13.731Z,13.35
2019-02-20T16:42:42.398Z,14.38
2019-02-20T16:45:22.778Z,12.80
2019-02-20T16:47:51.565Z,12.65
2019-02-20T16:50:21.007Z,12.60
2019-02-20T16:52:49.491Z,13.10
2019-02-20T16:55:19.589Z,12.90
2019-02-20T16:57:56.176Z,12.15
2019-02-20T17:00:20.844Z,12.35
2019-02-20T17:02:49.489Z,12.20
2019-02-20T17:05:18.223Z,11.43
2019-02-20T17:07:46.709Z,10.68
2019-02-20T17:10:16.287Z,10.50
2019-02-20T17:12:44.794Z,10.50
2019-02-20T17:15:15.165Z,10.25
2019-02-20T17:17:43.649Z,11.15
2019-02-20T17:20:14.824Z,11.78
2019-02-20T17:22:43.315Z,11.13
2019-02-20T17:25:13.227Z,10.20
2019-02-20T17:27:41.643Z,10.27
2019-02-20T17:30:17.756Z,10.10
2019-02-20T17:32:46.936Z,10.48
2019-02-20T17:35:17.168Z,9.03
2019-02-20T17:37:47.460Z,10.20
2019-02-20T17:40:16.410Z,11.40
2019-02-20T17:42:44.942Z,11.63
2019-02-20T17:45:15.657Z,11.75
2019-02-20T17:47:44.462Z,11.35
2019-02-20T17:50:21.994Z,10.80
2019-02-20T17:52:50.444Z,9.30
2019-02-20T17:55:18.914Z,8.75
2019-02-20T17:57:47.344Z,8.40
2019-02-20T18:00:19.097Z,8.80
2019-02-20T18:02:47.593Z,10.20
2019-02-20T18:05:16.060Z,8.93
2019-02-20T18:07:49.919Z,9.18
2019-02-20T18:10:14.963Z,9.25
2019-02-20T18:12:43.383Z,9.63
2019-02-20T18:15:13.328Z,9.40
2019-02-20T18:17:41.792Z,10.58
2019-02-20T18:20:13.341Z,9.88
2019-02-20T18:22:43.680Z,10.90
2019-02-20T18:25:12.576Z,10.82
2019-02-20T18:27:41.000Z,9.83
2019-02-20T18:30:12.291Z,10.80
2019-02-20T18:32:40.785Z,12.40
2019-02-20T18:35:14.691Z,12.07
2019-02-20T18:37:43.869Z,10.75
2019-02-20T18:40:16.668Z,11.55
2019-02-20T18:42:45.090Z,11.85
2019-02-20T18:45:15.067Z,11.85
2019-02-20T18:47:43.474Z,12.65
2019-02-20T18:50:14.088Z,13.00
2019-02-20T18:52:42.567Z,11.68
2019-02-20T18:55:12.331Z,10.80
2019-02-20T18:57:40.795Z,10.60
2019-02-20T19:00:20.735Z,10.43
2019-02-20T19:02:50.093Z,10.13
2019-02-20T19:05:19.160Z,9.60
2019-02-20T19:07:48.190Z,9.83
2019-02-20T19:10:22.304Z,9.53
2019-02-20T19:13:12.782Z,10.10
2019-02-20T19:16:10.841Z,9.80
2019-02-20T19:18:44.906Z,9.60
2019-02-20T19:21:25.220Z,9.67
2019-02-20T19:24:08.078Z,9.50
2019-02-20T19:26:48.427Z,9.50
2019-02-20T19:29:25.679Z,9.15
2019-02-20T19:32:27.712Z,10.70
2019-02-20T19:35:12.883Z,9.60
2019-02-20T19:37:53.271Z,10.35
2019-02-20T19:40:42.694Z,9.50
2019-02-20T19:43:43.141Z,10.20
2019-02-20T19:46:23.419Z,10.10
2019-02-20T19:49:09.876Z,10.30
2019-02-20T19:51:43.973Z,9.85
2019-02-20T19:54:33.324Z,10.00
2019-02-20T19:57:14.804Z,10.13
2019-02-20T19:59:51.979Z,10.50
2019-02-20T20:02:29.300Z,10.32
2019-02-20T20:05:15.883Z,10.03
2019-02-20T20:08:03.948Z,9.93
2019-02-20T20:10:52.102Z,9.90
2019-02-20T20:13:31.838Z,10.70
2019-02-20T20:16:21.714Z,9.88
2019-02-20T20:19:14.240Z,10.48
2019-02-20T20:21:51.370Z,10.72
2019-02-20T20:24:31.543Z,10.50
2019-02-20T20:27:19.570Z,9.80
2019-02-20T20:30:27.729Z,11.20
2019-02-20T20:33:04.457Z,10.70
2019-02-20T20:36:00.221Z,11.35
2019-02-20T20:38:52.393Z,10.60
2019-02-20T20:41:46.127Z,10.85
2019-02-20T20:44:27.627Z,11.15
2019-02-20T20:47:02.192Z,11.50
2019-02-20T20:49:45.041Z,11.90
2019-02-20T20:52:39.496Z,13.28
2019-02-20T20:55:39.491Z,11.43
2019-02-20T20:58:25.935Z,11.70
2019-02-20T21:00:59.960Z,12.90
2019-02-20T21:03:31.483Z,13.40
2019-02-20T21:06:18.413Z,12.00
2019-02-20T21:08:52.761Z,12.18
2019-02-20T21:11:35.544Z,12.68
2019-02-20T21:14:32.513Z,11.95
2019-02-20T21:17:16.996Z,13.10
2019-02-20T21:20:09.563Z,12.60
2019-02-20T21:22:47.806Z,12.90
2019-02-20T21:25:41.909Z,13.25
2019-02-20T21:28:32.112Z,14.18
2019-02-20T21:31:21.651Z,13.38
2019-02-20T21:34:28.628Z,13.80
2019-02-20T21:37:02.984Z,13.93
2019-02-20T21:39:43.237Z,13.55
2019-02-20T21:42:17.483Z,14.10
2019-02-20T21:44:51.860Z,14.00
2019-02-20T21:47:42.738Z,13.60
2019-02-20T21:50:15.192Z,14.55
2019-02-20T21:52:49.576Z,15.00
2019-02-20T21:55:46.588Z,16.00
2019-02-20T21:58:48.238Z,15.40
2019-02-20T22:01:37.900Z,14.65
2019-02-20T22:04:24.868Z,15.47
2019-02-20T22:07:20.302Z,16.12
2019-02-20T22:10:08.407Z,15.78
2019-02-20T22:12:54.156Z,15.58
2019-02-20T22:15:40.125Z,15.77
2019-02-20T22:18:28.660Z,16.00
2019-02-20T22:21:06.135Z,15.50
2019-02-20T22:23:49.683Z,16.32
2019-02-20T22:26:26.540Z,16.40
2019-02-20T22:29:00.984Z,16.42
2019-02-20T22:31:44.467Z,16.35
2019-02-20T22:34:21.664Z,17.30
2019-02-20T22:37:26.712Z,17.35
2019-02-20T22:40:09.955Z,17.67
2019-02-20T22:42:47.238Z,17.90
2019-02-20T22:45:39.772Z,18.50
2019-02-20T22:48:13.979Z,17.70
2019-02-20T22:50:48.387Z,18.02
2019-02-20T22:53:28.347Z,18.70
2019-02-20T22:56:14.916Z,18.07
2019-02-20T22:58:46.413Z,18.40
2019-02-20T23:01:29.826Z,18.60
2019-02-20T23:04:13.101Z,18.62
2019-02-20T23:06:53.596Z,18.77
2019-02-20T23:09:37.135Z,18.80
2019-02-20T23:12:23.770Z,18.37
2019-02-20T23:14:59.312Z,19.20
2019-02-20T23:17:28.553Z,19.50
2019-02-20T23:19:57.254Z,19.80
2019-02-20T23:22:25.662Z,19.70
2019-02-20T23:24:54.060Z,19.15
2019-02-20T23:27:22.502Z,20.10
2019-02-20T23:29:50.895Z,19.85
2019-02-20T23:32:19.317Z,21.00
2019-02-20T23:34:47.731Z,20.25
2019-02-20T23:37:16.135Z,21.48
2019-02-20T23:39:44.567Z,21.77
2019-02-20T23:42:12.973Z,20.50
2019-02-20T23:44:41.372Z,20.60
2019-02-20T23:47:09.867Z,22.05
2019-02-20T23:49:38.567Z,22.07
2019-02-20T23:52:06.960Z,22.48
2019-02-20T23:54:35.380Z,21.87
2019-02-20T23:57:03.787Z,22.85
2019-02-20T23:59:32.200Z,23.05
